createdAt,value
2022-11-29T00:01:36.904Z,96263.97
2022-11-29T00:04:04.508Z,96259.81
2022-11-29T00:06:34.152Z,96264.69
2022-11-29T00:09:08.267Z,96262.16
2022-11-29T00:11:56.304Z,96260.16
2022-11-29T00:14:24.947Z,96252.50
2022-11-29T00:16:55.195Z,96254.47
2022-11-29T00:19:22.633Z,96258.19
2022-11-29T00:21:49.561Z,96256.94
2022-11-29T00:24:16.493Z,96256.94
2022-11-29T00:26:43.380Z,96264.34
2022-11-29T00:29:12.991Z,96256.69
2022-11-29T00:31:40.963Z,96250.63
2022-11-29T00:34:10.336Z,96256.69
2022-11-29T00:36:37.773Z,96246.41
2022-11-29T00:39:05.912Z,96251.00
2022-11-29T00:41:32.943Z,96246.13
2022-11-29T00:44:00.412Z,96244.84
2022-11-29T00:46:27.349Z,96242.53
2022-11-29T00:48:54.200Z,96237.63
2022-11-29T00:51:20.997Z,96248.78
2022-11-29T00:53:47.899Z,96252.97
2022-11-29T00:56:14.785Z,96249.38
2022-11-29T00:58:43.499Z,96253.31
2022-11-29T01:01:11.590Z,96250.69
2022-11-29T01:03:38.631Z,96252.84
2022-11-29T01:06:12.353Z,96251.22
2022-11-29T01:08:40.030Z,96246.81
2022-11-29T01:11:33.366Z,96250.41
2022-11-29T01:14:02.747Z,96241.59
2022-11-29T01:16:31.048Z,96251.34
2022-11-29T01:18:57.971Z,96246.81
2022-11-29T01:21:25.328Z,96250.06
2022-11-29T01:23:54.344Z,96250.78
2022-11-29T01:26:25.346Z,96246.69
2022-11-29T01:28:54.650Z,96249.47
2022-11-29T01:31:28.547Z,96253.88
2022-11-29T01:33:57.305Z,96252.09
2022-11-29T01:36:25.149Z,96245.38
2022-11-29T01:38:52.644Z,96257.63
2022-11-29T01:41:26.559Z,96253.09
2022-11-29T01:43:59.343Z,96253.38
2022-11-29T01:46:28.903Z,96246.69
2022-11-29T01:49:14.286Z,96250.13
2022-11-29T01:51:46.185Z,96251.91
2022-11-29T01:54:14.948Z,96253.41
2022-11-29T01:56:43.052Z,96243.91
2022-11-29T01:59:14.539Z,96249.31
2022-11-29T02:01:41.509Z,96242.28
2022-11-29T02:04:09.119Z,96242.66
2022-11-29T02:06:37.387Z,96242.34
2022-11-29T02:09:04.667Z,96234.63
2022-11-29T02:12:07.453Z,96240.31
2022-11-29T02:15:05.434Z,96235.81
2022-11-29T02:17:40.711Z,96233.81
2022-11-29T02:20:52.336Z,96240.22
2022-11-29T02:23:47.331Z,96238.13
2022-11-29T02:26:33.915Z,96236.13
2022-11-29T02:29:33.708Z,96240.53
2022-11-29T02:32:19.103Z,96236.25
2022-11-29T02:34:54.316Z,96244.91
2022-11-29T02:37:48.858Z,96244.94
2022-11-29T02:40:58.359Z,96239.16
2022-11-29T02:43:58.676Z,96243.25
2022-11-29T02:47:02.511Z,96240.03
2022-11-29T02:50:11.204Z,96242.94
2022-11-29T02:53:01.309Z,96246.56
2022-11-29T02:55:48.062Z,96245.31
2022-11-29T02:58:34.069Z,96245.88
2022-11-29T03:01:24.984Z,96251.09
2022-11-29T03:04:30.033Z,96256.00
2022-11-29T03:07:16.211Z,96251.91
2022-11-29T03:10:02.763Z,96257.63
2022-11-29T03:12:39.421Z,96260.97
2022-11-29T03:15:38.996Z,96265.44
2022-11-29T03:18:39.869Z,96269.91
2022-11-29T03:21:36.063Z,96266.44
2022-11-29T03:24:16.702Z,96270.84
2022-11-29T03:26:49.907Z,96267.06
2022-11-29T03:29:59.302Z,96275.56
2022-11-29T03:32:45.504Z,96274.44
2022-11-29T03:35:24.809Z,96265.78
2022-11-29T03:38:17.019Z,96277.59
2022-11-29T03:41:08.128Z,96274.84
2022-11-29T03:44:05.471Z,96282.59
2022-11-29T03:46:58.579Z,96277.31
2022-11-29T03:49:54.600Z,96262.69
2022-11-29T03:52:42.529Z,96270.47
2022-11-29T03:55:12.340Z,96276.00
2022-11-29T03:58:10.728Z,96270.78
2022-11-29T04:01:39.325Z,96267.56
2022-11-29T04:05:09.458Z,96267.50
2022-11-29T04:08:05.923Z,96265.25
2022-11-29T04:11:02.921Z,96262.28
2022-11-29T04:14:03.820Z,96263.91
2022-11-29T04:16:38.894Z,96263.28
2022-11-29T04:19:28.687Z,96264.97
2022-11-29T04:22:47.807Z,96264.28
2022-11-29T04:25:41.297Z,96271.13
2022-11-29T04:29:04.492Z,96266.53
2022-11-29T04:32:08.892Z,96261.28
2022-11-29T04:34:50.371Z,96270.72
2022-11-29T04:37:45.884Z,96267.47
2022-11-29T04:40:36.231Z,96263.28
2022-11-29T04:43:35.518Z,96268.41
2022-11-29T04:46:14.186Z,96263.06
2022-11-29T04:49:13.199Z,96268.06
2022-11-29T04:52:03.992Z,96265.22
2022-11-29T04:54:55.010Z,96268.75
2022-11-29T04:57:58.418Z,96277.28
2022-11-29T05:00:25.355Z,96280.78
2022-11-29T05:03:11.308Z,96277.66
2022-11-29T05:05:51.230Z,96282.50
2022-11-29T05:09:14.325Z,96279.19
2022-11-29T05:12:05.342Z,96273.97
2022-11-29T05:14:46.931Z,96278.84
2022-11-29T05:17:47.555Z,96278.50
2022-11-29T05:20:45.433Z,96286.34
2022-11-29T05:24:10.010Z,96290.22
2022-11-29T05:26:57.598Z,96286.63
2022-11-29T05:30:23.719Z,96292.81
2022-11-29T05:33:25.464Z,96291.84
2022-11-29T05:35:53.091Z,96290.09
2022-11-29T05:39:10.839Z,96301.31
2022-11-29T05:42:06.552Z,96297.41
2022-11-29T05:44:56.595Z,96288.59
2022-11-29T05:47:36.751Z,96300.78
2022-11-29T05:51:11.590Z,96294.75
2022-11-29T05:54:26.033Z,96298.34
2022-11-29T05:57:17.389Z,96308.78
2022-11-29T05:59:46.369Z,96307.50
2022-11-29T06:02:59.201Z,96309.84
2022-11-29T06:05:39.557Z,96300.78
2022-11-29T06:08:41.931Z,96302.91
2022-11-29T06:11:40.096Z,96305.53
2022-11-29T06:15:01.857Z,96305.88
2022-11-29T06:17:55.191Z,96310.75
2022-11-29T06:21:01.554Z,96305.53
2022-11-29T06:23:43.684Z,96313.31
2022-11-29T06:26:36.254Z,96314.50
2022-11-29T06:29:23.923Z,96312.03
2022-11-29T06:32:32.917Z,96314.66
2022-11-29T06:35:28.151Z,96320.84
2022-11-29T06:37:58.422Z,96330.50
2022-11-29T06:40:25.869Z,96326.91
2022-11-29T06:42:52.725Z,96325.75
2022-11-29T06:45:21.752Z,96321.56
2022-11-29T06:48:04.485Z,96325.75
2022-11-29T06:51:02.031Z,96323.75
2022-11-29T06:54:18.232Z,96327.66
2022-11-29T06:57:20.821Z,96333.06
2022-11-29T07:00:06.506Z,96336.50
2022-11-29T07:03:14.308Z,96336.66
2022-11-29T07:05:41.821Z,96337.75
2022-11-29T07:08:18.819Z,96346.56
2022-11-29T07:10:49.978Z,96340.72
2022-11-29T07:13:18.325Z,96347.22
2022-11-29T07:16:12.587Z,96346.25
2022-11-29T07:18:54.534Z,96355.72
2022-11-29T07:22:10.597Z,96347.50
2022-11-29T07:25:11.361Z,96352.03
2022-11-29T07:28:22.442Z,96352.69
2022-11-29T07:31:28.930Z,96356.94
2022-11-29T07:34:20.296Z,96357.56
2022-11-29T07:37:18.805Z,96350.38
2022-11-29T07:40:02.539Z,96354.63
2022-11-29T07:42:51.034Z,96362.09
2022-11-29T07:45:36.066Z,96357.56
2022-11-29T07:48:03.697Z,96362.06
2022-11-29T07:50:31.748Z,96360.94
2022-11-29T07:52:59.785Z,96367.13
2022-11-29T07:55:27.822Z,96371.91
2022-11-29T07:57:54.654Z,96371.53
2022-11-29T08:00:22.311Z,96364.97
2022-11-29T08:02:50.532Z,96367.25
2022-11-29T08:05:17.970Z,96370.28
2022-11-29T08:07:46.348Z,96374.09
2022-11-29T08:10:16.718Z,96375.84
2022-11-29T08:12:50.290Z,96374.09
2022-11-29T08:15:22.194Z,96380.00
2022-11-29T08:17:49.640Z,96374.16
2022-11-29T08:20:17.351Z,96373.16
2022-11-29T08:22:44.230Z,96381.53
2022-11-29T08:25:11.672Z,96386.06
2022-11-29T08:27:38.994Z,96383.28
2022-11-29T08:30:07.239Z,96389.78
2022-11-29T08:32:34.989Z,96388.50
2022-11-29T08:35:01.985Z,96380.72
2022-11-29T08:37:28.760Z,96385.47
2022-11-29T08:39:56.135Z,96376.75
2022-11-29T08:42:22.907Z,96378.81
2022-11-29T08:44:49.737Z,96379.00
2022-11-29T08:47:35.143Z,96377.28
2022-11-29T08:50:17.369Z,96387.75
2022-11-29T08:53:06.153Z,96383.44
2022-11-29T08:55:37.298Z,96388.69
2022-11-29T08:58:07.839Z,96386.34
2022-11-29T09:00:35.367Z,96390.31
2022-11-29T09:03:23.604Z,96390.88
2022-11-29T09:05:51.046Z,96392.84
2022-11-29T09:08:18.287Z,96391.13
2022-11-29T09:10:45.237Z,96395.53
2022-11-29T09:13:12.885Z,96399.13
2022-11-29T09:15:42.202Z,96402.63
2022-11-29T09:18:09.223Z,96397.72
2022-11-29T09:20:36.349Z,96400.63
2022-11-29T09:23:03.143Z,96404.34
2022-11-29T09:25:30.108Z,96403.88
2022-11-29T09:28:01.272Z,96399.91
2022-11-29T09:30:31.277Z,96407.06
2022-11-29T09:33:02.619Z,96408.75
2022-11-29T09:35:29.934Z,96407.13
2022-11-29T09:37:56.775Z,96408.03
2022-11-29T09:40:32.591Z,96412.28
2022-11-29T09:43:50.435Z,96406.13
2022-11-29T09:46:22.972Z,96410.59
2022-11-29T09:49:19.744Z,96410.22
2022-11-29T09:52:08.281Z,96415.09
2022-11-29T09:55:31.636Z,96414.81
2022-11-29T09:58:01.220Z,96406.94
2022-11-29T10:00:31.154Z,96412.56
2022-11-29T10:03:26.700Z,96413.09
2022-11-29T10:06:22.143Z,96420.03
2022-11-29T10:09:04.647Z,96415.66
2022-11-29T10:11:56.266Z,96419.25
2022-11-29T10:14:35.847Z,96408.25
2022-11-29T10:17:40.685Z,96409.59
2022-11-29T10:20:26.583Z,96418.72
2022-11-29T10:23:01.410Z,96412.84
2022-11-29T10:25:39.026Z,96415.44
2022-11-29T10:28:13.831Z,96410.31
2022-11-29T10:30:43.065Z,96407.16
2022-11-29T10:33:25.595Z,96409.75
2022-11-29T10:35:58.958Z,96400.47
2022-11-29T10:38:31.189Z,96402.56
2022-11-29T10:41:08.760Z,96406.41
2022-11-29T10:43:37.384Z,96406.41
2022-11-29T10:46:06.199Z,96403.19
2022-11-29T10:48:34.721Z,96401.56
2022-11-29T10:51:02.409Z,96403.72
2022-11-29T10:53:37.446Z,96405.16
2022-11-29T10:56:29.457Z,96399.09
2022-11-29T10:58:57.979Z,96396.03
2022-11-29T11:01:28.872Z,96399.38
2022-11-29T11:03:58.038Z,96392.53
2022-11-29T11:06:28.597Z,96399.66
2022-11-29T11:09:12.420Z,96402.09
2022-11-29T11:11:39.751Z,96403.91
2022-11-29T11:14:25.655Z,96407.88
2022-11-29T11:16:52.777Z,96401.09
2022-11-29T11:19:30.826Z,96411.66
2022-11-29T11:22:03.556Z,96407.31
2022-11-29T11:24:33.783Z,96413.28
2022-11-29T11:27:01.519Z,96406.50
2022-11-29T11:29:45.374Z,96406.41
2022-11-29T11:32:19.159Z,96404.72
2022-11-29T11:34:59.454Z,96406.97
2022-11-29T11:37:35.570Z,96415.28
2022-11-29T11:40:29.181Z,96408.78
2022-11-29T11:43:00.684Z,96408.78
2022-11-29T11:45:35.563Z,96411.31
2022-11-29T11:48:12.613Z,96422.69
2022-11-29T11:50:52.274Z,96407.06
2022-11-29T11:53:35.707Z,96411.50
2022-11-29T11:56:10.919Z,96414.84
2022-11-29T11:58:49.635Z,96408.78
2022-11-29T12:01:36.328Z,96411.84
2022-11-29T12:04:07.408Z,96421.69
2022-11-29T12:06:58.900Z,96409.22
2022-11-29T12:09:45.577Z,96411.28
2022-11-29T12:12:27.407Z,96403.72
2022-11-29T12:15:07.529Z,96415.78
2022-11-29T12:17:41.911Z,96419.56
2022-11-29T12:20:36.673Z,96421.19
2022-11-29T12:23:12.254Z,96427.72
2022-11-29T12:26:34.833Z,96431.59
2022-11-29T12:29:16.209Z,96424.72
2022-11-29T12:32:15.808Z,96420.31
2022-11-29T12:34:50.258Z,96425.91
2022-11-29T12:37:43.797Z,96421.50
2022-11-29T12:41:06.575Z,96425.03
2022-11-29T12:43:51.423Z,96429.91
2022-11-29T12:46:26.286Z,96425.53
2022-11-29T12:49:27.358Z,96428.63
2022-11-29T12:52:39.406Z,96429.34
2022-11-29T12:55:57.315Z,96432.22
2022-11-29T12:58:40.099Z,96434.69
2022-11-29T13:01:17.283Z,96428.97
2022-11-29T13:04:08.089Z,96433.78
2022-11-29T13:07:10.148Z,96430.06
2022-11-29T13:10:18.205Z,96430.94
2022-11-29T13:13:08.744Z,96433.31
2022-11-29T13:15:56.593Z,96440.41
2022-11-29T13:18:37.605Z,96438.94
2022-11-29T13:21:15.848Z,96443.97
2022-11-29T13:24:10.685Z,96443.97
2022-11-29T13:26:40.684Z,96450.47
2022-11-29T13:29:17.039Z,96450.13
2022-11-29T13:31:46.093Z,96452.75
2022-11-29T13:34:17.105Z,96447.50
2022-11-29T13:37:23.813Z,96453.19
2022-11-29T13:40:31.408Z,96459.00
2022-11-29T13:43:40.191Z,96457.72
2022-11-29T13:47:03.354Z,96456.19
2022-11-29T13:49:53.749Z,96459.53
2022-11-29T13:52:39.186Z,96455.13
2022-11-29T13:55:09.948Z,96462.25
2022-11-29T13:58:16.630Z,96468.47
2022-11-29T14:00:44.370Z,96470.44
2022-11-29T14:03:38.609Z,96463.88
2022-11-29T14:06:18.601Z,96467.13
2022-11-29T14:11:42.960Z,96469.47
2022-11-29T14:14:29.533Z,96463.59
2022-11-29T14:17:02.054Z,96467.81
2022-11-29T14:19:35.061Z,96465.84
2022-11-29T14:22:01.804Z,96474.34
2022-11-29T14:24:37.278Z,96470.09
2022-11-29T14:27:07.594Z,96466.22
2022-11-29T14:29:55.227Z,96474.41
2022-11-29T14:32:49.771Z,96466.63
2022-11-29T14:35:45.619Z,96476.13
2022-11-29T14:38:42.425Z,96472.31
2022-11-29T14:41:50.999Z,96480.09
2022-11-29T14:44:22.331Z,96482.44
2022-11-29T14:47:03.102Z,96481.47
2022-11-29T14:49:32.123Z,96477.56
2022-11-29T14:52:12.766Z,96488.69
2022-11-29T14:55:28.832Z,96488.41
2022-11-29T14:58:03.574Z,96502.47
2022-11-29T15:00:35.149Z,96493.97
2022-11-29T15:03:20.540Z,96501.19
2022-11-29T15:06:07.719Z,96496.66
2022-11-29T15:08:46.938Z,96495.41
2022-11-29T15:11:31.401Z,96503.59
2022-11-29T15:14:15.383Z,96481.56
2022-11-29T15:17:19.728Z,96492.84
2022-11-29T15:20:19.597Z,96495.63
2022-11-29T15:22:52.436Z,96503.06
2022-11-29T15:25:31.063Z,96502.75
2022-11-29T15:28:06.087Z,96497.50
2022-11-29T15:30:41.410Z,96502.09
2022-11-29T15:33:29.191Z,96496.22
2022-11-29T15:36:07.634Z,96498.09
2022-11-29T15:38:54.869Z,96495.75
2022-11-29T15:41:30.782Z,96507.38
2022-11-29T15:44:05.710Z,96513.63
2022-11-29T15:46:35.289Z,96511.63
2022-11-29T15:49:27.884Z,96516.00
2022-11-29T15:52:00.930Z,96518.06
2022-11-29T15:54:47.364Z,96524.59
2022-11-29T15:57:38.968Z,96524.25
2022-11-29T16:00:12.052Z,96527.50
2022-11-29T16:02:46.258Z,96532.38
2022-11-29T16:05:25.379Z,96530.78
2022-11-29T16:07:57.810Z,96524.88
2022-11-29T16:10:52.793Z,96529.31
2022-11-29T16:13:25.768Z,96533.72
2022-11-29T16:16:19.023Z,96535.06
2022-11-29T16:18:48.803Z,96536.88
2022-11-29T16:21:32.686Z,96540.63
2022-11-29T16:24:19.584Z,96544.59
2022-11-29T16:26:49.017Z,96549.66
2022-11-29T16:29:45.176Z,96543.31
2022-11-29T16:32:35.110Z,96535.81
2022-11-29T16:35:22.240Z,96544.69
2022-11-29T16:37:49.349Z,96551.56
2022-11-29T16:40:31.407Z,96553.19
2022-11-29T16:43:04.398Z,96548.63
2022-11-29T16:45:37.995Z,96546.69
2022-11-29T16:48:26.591Z,96550.16
2022-11-29T16:51:16.227Z,96544.56
2022-11-29T16:53:53.291Z,96543.75
2022-11-29T16:56:26.184Z,96544.25
2022-11-29T16:59:20.542Z,96556.03
2022-11-29T17:01:44.637Z,96551.78
2022-11-29T17:04:11.501Z,96548.28
2022-11-29T17:06:38.410Z,96550.69
2022-11-29T17:09:05.893Z,96549.75
2022-11-29T17:11:33.072Z,96550.38
2022-11-29T17:13:59.863Z,96544.50
2022-11-29T17:16:27.054Z,96553.63
2022-11-29T17:18:53.956Z,96555.59
2022-11-29T17:21:29.438Z,96547.00
2022-11-29T17:23:56.298Z,96558.59
2022-11-29T17:26:24.211Z,96557.72
2022-11-29T17:28:52.299Z,96558.47
2022-11-29T17:31:22.799Z,96554.06
2022-11-29T17:33:50.270Z,96565.50
2022-11-29T17:36:20.271Z,96574.66
2022-11-29T17:38:48.045Z,96574.31
2022-11-29T17:41:24.299Z,96576.13
2022-11-29T17:43:53.428Z,96569.41
2022-11-29T17:46:26.604Z,96571.38
2022-11-29T17:49:12.115Z,96573.69
2022-11-29T17:51:51.776Z,96583.50
2022-11-29T17:54:19.388Z,96581.34
2022-11-29T17:56:46.226Z,96581.84
2022-11-29T17:59:12.999Z,96581.19
2022-11-29T18:01:39.916Z,96585.78
2022-11-29T18:04:08.278Z,96590.50
2022-11-29T18:06:38.393Z,96594.94
2022-11-29T18:09:08.619Z,96596.56
2022-11-29T18:11:46.996Z,96590.38
2022-11-29T18:14:18.715Z,96595.81
2022-11-29T18:16:45.897Z,96602.16
2022-11-29T18:19:17.449Z,96599.69
2022-11-29T18:21:44.463Z,96591.69
2022-11-29T18:24:11.772Z,96609.00
2022-11-29T18:26:39.523Z,96614.56
2022-11-29T18:29:07.772Z,96617.53
2022-11-29T18:31:38.385Z,96616.41
2022-11-29T18:34:09.649Z,96619.47
2022-11-29T18:36:43.050Z,96625.06
2022-11-29T18:39:16.582Z,96616.56
2022-11-29T18:41:46.669Z,96617.59
2022-11-29T18:44:16.777Z,96616.09
2022-11-29T18:46:45.088Z,96622.13
2022-11-29T18:49:15.292Z,96615.28
2022-11-29T18:51:44.573Z,96618.88
2022-11-29T18:54:12.493Z,96624.41
2022-11-29T18:56:39.861Z,96623.13
2022-11-29T18:59:16.906Z,96630.28
2022-11-29T19:01:46.142Z,96628.34
2022-11-29T19:04:16.859Z,96627.38
2022-11-29T19:06:44.335Z,96639.13
2022-11-29T19:09:18.447Z,96635.84
2022-11-29T19:11:45.270Z,96628.53
2022-11-29T19:14:12.939Z,96631.28
2022-11-29T19:16:46.207Z,96641.75
2022-11-29T19:19:13.497Z,96639.13
2022-11-29T19:21:41.339Z,96644.34
2022-11-29T19:24:14.563Z,96635.38
2022-11-29T19:26:47.059Z,96642.38
2022-11-29T19:29:15.210Z,96639.13
2022-11-29T19:31:42.571Z,96647.13
2022-11-29T19:34:09.574Z,96645.31
2022-11-29T19:36:42.299Z,96639.13
2022-11-29T19:39:10.074Z,96633.56
2022-11-29T19:41:37.817Z,96640.44
2022-11-29T19:44:07.683Z,96642.03
2022-11-29T19:46:40.998Z,96645.66
2022-11-29T19:49:09.382Z,96648.25
2022-11-29T19:51:36.902Z,96652.47
2022-11-29T19:54:07.413Z,96651.50
2022-11-29T19:56:34.343Z,96653.13
2022-11-29T19:59:01.269Z,96663.56
2022-11-29T20:01:37.894Z,96660.63
2022-11-29T20:04:06.669Z,96665.00
2022-11-29T20:06:33.570Z,96659.63
2022-11-29T20:09:00.407Z,96660.28
2022-11-29T20:11:27.377Z,96666.47
2022-11-29T20:14:05.595Z,96675.75
2022-11-29T20:16:33.438Z,96682.25
2022-11-29T20:19:01.546Z,96683.38
2022-11-29T20:21:32.269Z,96682.72
2022-11-29T20:24:05.841Z,96680.09
2022-11-29T20:26:36.055Z,96678.41
2022-11-29T20:29:05.563Z,96679.22
2022-11-29T20:31:35.043Z,96679.84
2022-11-29T20:34:02.030Z,96685.56
2022-11-29T20:37:07.279Z,96688.50
2022-11-29T20:39:52.501Z,96678.66
2022-11-29T20:42:44.459Z,96682.22
2022-11-29T20:45:13.892Z,96693.59
2022-11-29T20:47:48.561Z,96685.44
2022-11-29T20:50:23.758Z,96695.88
2022-11-29T20:53:20.022Z,96687.69
2022-11-29T20:55:49.301Z,96690.59
2022-11-29T20:58:18.222Z,96690.25
2022-11-29T21:00:46.159Z,96689.94
2022-11-29T21:03:18.140Z,96700.16
2022-11-29T21:05:45.648Z,96694.44
2022-11-29T21:08:13.372Z,96696.06
2022-11-29T21:10:40.469Z,96694.72
2022-11-29T21:13:07.961Z,96697.34
2022-11-29T21:15:35.370Z,96699.94
2022-11-29T21:18:02.673Z,96700.31
2022-11-29T21:20:29.848Z,96697.09
2022-11-29T21:23:06.246Z,96711.78
2022-11-29T21:25:59.680Z,96712.31
2022-11-29T21:28:34.987Z,96707.59
2022-11-29T21:31:02.169Z,96717.94
2022-11-29T21:33:29.500Z,96707.38
2022-11-29T21:35:59.552Z,96716.50
2022-11-29T21:38:28.880Z,96720.13
2022-11-29T21:40:55.661Z,96709.34
2022-11-29T21:43:28.732Z,96714.56
2022-11-29T21:46:09.413Z,96709.69
2022-11-29T21:48:37.684Z,96709.69
2022-11-29T21:51:09.876Z,96701.53
2022-11-29T21:53:38.122Z,96700.59
2022-11-29T21:56:08.556Z,96706.84
2022-11-29T21:58:38.384Z,96706.16
2022-11-29T22:01:14.781Z,96701.28
2022-11-29T22:03:42.287Z,96700.97
2022-11-29T22:06:13.462Z,96709.44
2022-11-29T22:08:41.594Z,96711.59
2022-11-29T22:11:15.134Z,96708.03
2022-11-29T22:14:03.108Z,96719.91
2022-11-29T22:16:30.205Z,96708.03
2022-11-29T22:18:57.169Z,96712.75
2022-11-29T22:21:24.047Z,96711.78
2022-11-29T22:23:52.608Z,96713.25
2022-11-29T22:26:19.513Z,96708.56
2022-11-29T22:28:46.338Z,96705.59
2022-11-29T22:31:13.463Z,96709.50
2022-11-29T22:33:40.570Z,96714.72
2022-11-29T22:36:11.249Z,96713.09
2022-11-29T22:38:39.189Z,96700.72
2022-11-29T22:41:09.870Z,96707.56
2022-11-29T22:43:37.876Z,96709.19
2022-11-29T22:46:20.258Z,96706.56
2022-11-29T22:48:50.725Z,96698.25
2022-11-29T22:51:20.921Z,96695.16
2022-11-29T22:53:52.249Z,96699.25
2022-11-29T22:56:19.453Z,96695.84
2022-11-29T22:58:46.818Z,96696.00
2022-11-29T23:01:20.339Z,96691.59
2022-11-29T23:03:54.199Z,96690.78
2022-11-29T23:06:31.123Z,96693.22
2022-11-29T23:09:03.707Z,96699.75
2022-11-29T23:11:31.373Z,96692.41
2022-11-29T23:13:58.736Z,96691.59
2022-11-29T23:16:29.435Z,96688.84
2022-11-29T23:18:58.759Z,96692.03
2022-11-29T23:21:32.153Z,96695.88
2022-11-29T23:24:00.867Z,96692.59
2022-11-29T23:26:37.374Z,96682.16
2022-11-29T23:29:07.159Z,96690.78
2022-11-29T23:31:34.304Z,96686.38
2022-11-29T23:34:02.512Z,96690.13
2022-11-29T23:36:29.571Z,96682.63
2022-11-29T23:38:56.372Z,96685.72
2022-11-29T23:41:23.221Z,96689.66
2022-11-29T23:43:50.184Z,96695.69
2022-11-29T23:46:20.659Z,96686.34
2022-11-29T23:48:48.311Z,96684.72
2022-11-29T23:51:16.858Z,96694.84
2022-11-29T23:53:44.286Z,96684.72
2022-11-29T23:56:15.479Z,96682.31
2022-11-29T23:58:43.574Z,96675.94
